DK-0014 weather

Nordborg Flyveplads
Sønderborg, South Denmark, Denmark

Public forecast

Using degrees Celsius for public forecast. Weather courtesy of forecast.io.

Closest aviation weather report (METAR) to Nordborg Flyveplads

Closest report is Sønderborg Airport, 6.8 nm (12.5 km) SSE. Retrieved 2020/04/08 11:20 UTC (20 minutes ago):

EKSB 081120Z 13012KT CAVOK 14/04 Q1025

Closest aviation forecast (TAF) to Nordborg Flyveplads

Forecast is more than 12 hours old.

Closest forecast is Sønderborg Airport, 6.8 nm (12.5 km) SSE. Retrieved 2016/01/27 09:03 UTC (4 years ago):

TAF TAF EKSB 270856Z 2709/2721 23022KT 5000 -RA BR BKN008 TEMPO 2709/2721 24025G40KT 2000 RADZ BKN004